Rake, Iowa
Current Conditions -  °F | °C
As of 4:15 AM on Monday 26 Jan 2015 (Local Time) from KFXY Reporting Station
Overcast Overcast  
Wind Chill: 19°   Ceiling: 900
Heat Index: 30°   Visibility: 10mi
Dew Point: 27°   Wind: 15mph
Humidity: 86%   Direction: 190°S
Pressure: 29.82"   Gusts: NA
Location:  43.48°N, 93.92°W
Report Text: KFXY 261015Z AUTO 19013KT 10SM OVC009 M01/M03 A2982 RMK AO2
Loading
Personal Weather Stations






























Interactive Weather Map New forecast layout! Learn more

10-Day Weather Forecast

Advertisements
Track Severe Weather on mobile